Time;durP1;ratioP1;P1;durP2;ratioP2;P2;SDS_P1;SDS_P2;PMS_P1;PMS_P2;Temp;Humidity;BMP_temperature;BMP_pressure;BME280_temperature;BME280_humidity;BME280_pressure;Samples;Min_cycle;Max_cycle;Signal;HPM_P1;HPM_P2
2022/08/26 00:01:41;;;;;;;5.93;3.95;;;26.50;59.50;;;;;;4462333;32;20089;-70
2022/08/26 00:04:08;;;;;;;7.00;4.53;;;26.50;59.60;;;;;;4461862;32;20204;-70
2022/08/26 00:06:34;;;;;;;5.80;4.60;;;26.50;59.60;;;;;;4448401;32;20082;-70
2022/08/26 00:09:00;;;;;;;6.28;4.53;;;26.50;59.60;;;;;;4447882;32;20287;-71
2022/08/26 00:11:26;;;;;;;5.85;4.57;;;26.50;59.60;;;;;;4448046;32;20489;-73
2022/08/26 00:13:53;;;;;;;5.10;4.45;;;26.50;59.70;;;;;;4462177;32;20128;-70
2022/08/26 00:16:19;;;;;;;6.30;4.55;;;26.50;59.70;;;;;;4462280;32;20061;-70
2022/08/26 00:18:44;;;;;;;7.68;4.45;;;26.50;59.80;;;;;;4461403;32;20557;-70
2022/08/26 00:21:10;;;;;;;6.85;4.70;;;26.40;59.70;;;;;;4461841;32;20467;-70
2022/08/26 00:23:36;;;;;;;6.88;4.70;;;26.40;59.80;;;;;;4461464;32;20062;-70
2022/08/26 00:26:04;;;;;;;6.88;4.32;;;26.40;59.90;;;;;;4462609;32;20109;-70
2022/08/26 00:28:30;;;;;;;7.13;4.35;;;26.40;59.90;;;;;;4461913;32;20164;-70
2022/08/26 00:30:57;;;;;;;7.05;3.88;;;26.40;60.00;;;;;;4461618;32;20097;-70
2022/08/26 00:33:23;;;;;;;6.55;4.22;;;26.40;60.00;;;;;;4447861;32;20074;-70
2022/08/26 00:35:49;;;;;;;8.23;4.35;;;26.40;60.00;;;;;;4461982;32;20089;-70
2022/08/26 00:38:15;;;;;;;7.07;4.63;;;26.40;60.10;;;;;;4461446;32;20207;-70
2022/08/26 00:40:49;;;;;;;5.32;4.00;;;26.40;60.10;;;;;;4461359;32;20097;-70
2022/08/26 00:43:15;;;;;;;6.07;4.47;;;26.40;60.10;;;;;;4461481;32;20635;-71
2022/08/26 00:46:08;;;;;;;6.82;4.47;;;26.40;60.20;;;;;;4461515;32;20088;-70
2022/08/26 00:48:36;;;;;;;5.47;4.13;;;26.40;60.30;;;;;;4461395;32;20101;-70
2022/08/26 00:51:10;;;;;;;5.50;4.10;;;26.30;60.30;;;;;;4461308;32;20275;-71
2022/08/26 00:53:43;;;;;;;5.53;4.45;;;26.40;60.40;;;;;;4461533;32;20124;-70
2022/08/26 00:56:16;;;;;;;8.17;4.63;;;26.40;60.40;;;;;;4461466;32;20535;-70
2022/08/26 00:58:44;;;;;;;8.40;4.15;;;26.40;60.40;;;;;;4461540;32;20105;-70
2022/08/26 01:01:11;;;;;;;6.72;4.53;;;26.40;60.40;;;;;;4461549;32;20203;-70
2022/08/26 01:03:38;;;;;;;5.70;4.07;;;26.40;60.50;;;;;;4461229;32;20419;-70
2022/08/26 01:06:06;;;;;;;5.05;4.25;;;26.40;60.40;;;;;;4461235;32;20085;-71
2022/08/26 01:08:32;;;;;;;5.05;4.30;;;26.40;60.50;;;;;;4460845;32;20127;-70
2022/08/26 01:10:59;;;;;;;5.68;4.00;;;26.30;60.40;;;;;;4461120;32;20203;-71
2022/08/26 01:13:26;;;;;;;7.97;5.00;;;26.30;60.50;;;;;;4460954;32;20132;-70
2022/08/26 01:15:55;;;;;;;9.15;4.82;;;26.40;60.50;;;;;;4461089;32;20115;-70
2022/08/26 01:18:21;;;;;;;7.63;4.63;;;26.30;60.50;;;;;;4460656;32;20085;-70
2022/08/26 01:21:15;;;;;;;7.28;5.05;;;26.30;60.50;;;;;;4460991;32;20089;-70
2022/08/26 01:23:46;;;;;;;7.28;4.47;;;26.30;60.60;;;;;;4461002;32;20089;-70
2022/08/26 01:26:16;;;;;;;7.10;4.90;;;26.30;61.50;;;;;;4461009;32;20078;-70
2022/08/26 01:28:43;;;;;;;6.72;4.25;;;26.30;60.60;;;;;;4460696;32;20081;-70
2022/08/26 01:31:13;;;;;;;8.95;4.68;;;26.30;60.70;;;;;;4460780;32;20089;-70
2022/08/26 01:34:20;;;;;;;8.48;4.88;;;26.30;60.70;;;;;;4460542;32;20100;-70
2022/08/26 01:36:49;;;;;;;7.68;4.63;;;26.30;60.70;;;;;;4460817;32;20487;-71
2022/08/26 01:39:16;;;;;;;6.72;4.63;;;26.30;60.70;;;;;;4460650;32;20163;-70
2022/08/26 01:41:43;;;;;;;8.70;5.38;;;26.30;60.70;;;;;;4460910;32;20255;-70
2022/08/26 01:44:15;;;;;;;6.03;4.45;;;26.30;60.70;;;;;;4460581;32;20097;-70
2022/08/26 01:46:43;;;;;;;8.85;4.50;;;26.30;60.70;;;;;;4460971;32;20065;-70
2022/08/26 01:49:09;;;;;;;8.02;4.60;;;26.30;60.70;;;;;;4460583;32;20167;-70
2022/08/26 01:51:37;;;;;;;7.95;4.68;;;26.30;60.70;;;;;;4461046;32;20098;-70
2022/08/26 01:54:05;;;;;;;7.63;4.35;;;26.30;60.80;;;;;;4460446;32;20593;-70
2022/08/26 01:56:31;;;;;;;9.05;4.97;;;26.30;60.80;;;;;;4460446;32;20088;-70
2022/08/26 01:58:59;;;;;;;7.10;4.68;;;26.30;60.80;;;;;;4459952;32;20090;-70
2022/08/26 02:01:26;;;;;;;8.43;5.03;;;26.30;60.80;;;;;;4460164;32;20082;-70
2022/08/26 02:04:27;;;;;;;6.90;4.80;;;26.30;60.80;;;;;;4460179;32;20070;-70
2022/08/26 02:06:55;;;;;;;8.25;5.03;;;26.30;60.80;;;;;;4460773;32;20089;-70
2022/08/26 02:09:23;;;;;;;8.98;5.25;;;26.30;60.90;;;;;;4460369;32;20074;-70
2022/08/26 02:11:49;;;;;;;7.32;4.88;;;26.30;60.90;;;;;;4460439;32;20136;-70
2022/08/26 02:14:25;;;;;;;11.68;5.03;;;26.20;60.90;;;;;;4460476;32;20427;-70
2022/08/26 02:16:52;;;;;;;10.88;5.22;;;26.30;60.90;;;;;;4460825;32;20369;-70
2022/08/26 02:19:21;;;;;;;7.85;5.45;;;26.30;61.10;;;;;;4446272;32;20167;-70
2022/08/26 02:21:48;;;;;;;7.75;5.60;;;26.20;60.90;;;;;;4460477;32;20207;-70
2022/08/26 02:24:19;;;;;;;8.02;5.22;;;26.20;60.90;;;;;;4460432;32;20098;-70
2022/08/26 02:26:45;;;;;;;7.97;4.85;;;26.20;60.90;;;;;;4460757;32;20089;-70
2022/08/26 02:29:36;;;;;;;7.15;4.75;;;26.20;60.90;;;;;;4460436;32;20082;-70
2022/08/26 02:32:06;;;;;;;7.65;4.85;;;26.20;60.90;;;;;;4460743;32;20243;-70
2022/08/26 02:34:33;;;;;;;6.55;4.70;;;26.20;61.00;;;;;;4460234;32;20210;-70
2022/08/26 02:37:02;;;;;;;9.40;5.45;;;26.20;61.00;;;;;;4459965;32;20082;-70
2022/08/26 02:39:30;;;;;;;9.40;5.30;;;26.20;61.00;;;;;;4460285;32;20092;-70
2022/08/26 02:41:57;;;;;;;9.48;5.10;;;26.20;61.00;;;;;;4460954;32;20415;-70
2022/08/26 02:44:24;;;;;;;8.45;5.22;;;26.20;61.00;;;;;;4463394;32;20086;-70
2022/08/26 02:46:51;;;;;;;8.95;6.00;;;26.20;61.10;;;;;;4463144;32;20082;-70
2022/08/26 02:49:21;;;;;;;8.48;5.30;;;26.20;61.10;;;;;;4463497;32;20085;-71
2022/08/26 02:51:48;;;;;;;9.07;5.32;;;26.20;61.10;;;;;;4463240;32;20086;-70
2022/08/26 02:54:15;;;;;;;7.80;5.55;;;26.20;61.10;;;;;;4449267;32;20247;-70
2022/08/26 02:56:41;;;;;;;10.05;5.63;;;26.20;61.10;;;;;;4463062;32;20078;-70
2022/08/26 02:59:07;;;;;;;6.82;5.10;;;26.20;61.10;;;;;;4463400;32;20428;-70
2022/08/26 03:01:34;;;;;;;8.80;5.50;;;26.20;61.10;;;;;;4462833;32;20160;-70
2022/08/26 03:04:03;;;;;;;8.48;5.47;;;26.20;61.10;;;;;;4463054;32;20219;-70
2022/08/26 03:06:29;;;;;;;8.00;5.13;;;26.20;62.00;;;;;;4463095;32;20082;-70
2022/08/26 03:08:55;;;;;;;7.93;5.18;;;26.20;61.10;;;;;;4463165;32;20160;-70
2022/08/26 03:11:22;;;;;;;8.60;5.10;;;26.20;61.00;;;;;;4463033;32;20093;-70
2022/08/26 03:13:49;;;;;;;8.60;5.05;;;26.20;61.10;;;;;;4462986;32;20128;-70
2022/08/26 03:16:15;;;;;;;8.60;5.45;;;26.20;61.10;;;;;;4462704;32;20074;-70
2022/08/26 03:18:41;;;;;;;8.05;4.88;;;26.20;61.10;;;;;;4462454;32;20481;-70
2022/08/26 03:21:13;;;;;;;6.65;4.68;;;26.20;61.10;;;;;;4462446;32;20089;-71
2022/08/26 03:23:40;;;;;;;7.93;5.00;;;26.20;61.10;;;;;;4462733;32;20070;-70
2022/08/26 03:26:08;;;;;;;6.57;4.65;;;26.20;61.10;;;;;;4462405;32;20538;-71
2022/08/26 03:28:34;;;;;;;6.85;4.80;;;26.20;61.10;;;;;;4462398;32;20077;-70
2022/08/26 03:31:00;;;;;;;9.43;5.10;;;26.20;61.10;;;;;;4462709;32;20096;-70
2022/08/26 03:33:27;;;;;;;10.02;5.47;;;26.20;61.10;;;;;;4462637;32;20069;-70
2022/08/26 03:35:54;;;;;;;6.45;5.20;;;26.20;61.10;;;;;;4462324;32;20231;-71
2022/08/26 03:38:23;;;;;;;7.57;4.82;;;26.20;61.10;;;;;;4462654;32;20092;-70
2022/08/26 03:40:50;;;;;;;7.50;5.57;;;26.10;61.10;;;;;;4462041;32;20093;-70
2022/08/26 03:43:16;;;;;;;8.50;5.20;;;26.20;61.20;;;;;;4462206;32;20098;-70
2022/08/26 03:45:43;;;;;;;7.43;4.55;;;26.20;61.10;;;;;;4462246;32;20427;-70
2022/08/26 03:48:10;;;;;;;7.07;5.05;;;26.10;61.10;;;;;;4462448;32;20088;-70
2022/08/26 03:50:36;;;;;;;10.15;5.05;;;26.20;61.10;;;;;;4448266;32;20074;-70
2022/08/26 03:53:02;;;;;;;7.07;4.80;;;26.20;61.10;;;;;;4462047;32;20211;-71
2022/08/26 03:55:31;;;;;;;6.82;4.90;;;26.20;61.20;;;;;;4461660;32;20215;-71
2022/08/26 03:57:57;;;;;;;7.22;5.20;;;26.10;61.10;;;;;;4462385;32;20171;-70
2022/08/26 04:00:23;;;;;;;7.35;5.10;;;26.10;61.10;;;;;;4462242;32;20116;-71
2022/08/26 04:02:49;;;;;;;7.25;4.88;;;26.10;61.10;;;;;;4462370;32;20125;-70
2022/08/26 04:05:18;;;;;;;8.45;5.45;;;26.10;61.10;;;;;;4462264;32;20604;-70
2022/08/26 04:07:45;;;;;;;8.15;5.07;;;26.10;61.20;;;;;;4461915;32;20534;-70
2022/08/26 04:10:16;;;;;;;6.32;4.90;;;26.10;61.10;;;;;;4448377;32;20105;-71
2022/08/26 04:12:43;;;;;;;8.40;5.78;;;26.10;61.20;;;;;;4461902;32;20219;-71
2022/08/26 04:15:12;;;;;;;8.88;5.03;;;26.10;61.20;;;;;;4461870;32;20490;-70
2022/08/26 04:17:38;;;;;;;7.13;5.10;;;26.10;61.10;;;;;;4461665;32;20144;-70
2022/08/26 04:20:05;;;;;;;7.18;4.93;;;26.10;61.10;;;;;;4461889;32;20208;-70
2022/08/26 04:22:32;;;;;;;6.50;4.95;;;26.10;61.10;;;;;;4461895;32;20077;-70
2022/08/26 04:24:58;;;;;;;8.45;5.18;;;26.10;61.20;;;;;;4462134;32;20081;-70
2022/08/26 04:27:24;;;;;;;7.53;5.22;;;26.10;61.20;;;;;;4461858;32;20121;-70
2022/08/26 04:29:50;;;;;;;6.50;4.68;;;26.10;61.20;;;;;;4461744;32;20171;-70
2022/08/26 04:32:16;;;;;;;6.43;4.57;;;26.10;61.20;;;;;;4461811;32;20215;-70
2022/08/26 04:34:43;;;;;;;6.50;4.80;;;26.10;61.20;;;;;;4461916;32;22557;-70
2022/08/26 04:37:09;;;;;;;6.45;4.80;;;26.10;61.20;;;;;;4435001;32;20080;-71
2022/08/26 04:39:35;;;;;;;6.68;4.70;;;26.10;61.20;;;;;;4461589;32;20066;-70
2022/08/26 04:42:01;;;;;;;7.03;4.93;;;26.10;61.20;;;;;;4447663;32;20156;-70
2022/08/26 04:44:29;;;;;;;9.20;4.85;;;26.10;61.30;;;;;;4461110;32;20062;-71
2022/08/26 04:46:55;;;;;;;8.15;5.00;;;26.00;61.20;;;;;;4461369;32;20088;-71
2022/08/26 04:49:21;;;;;;;6.07;4.47;;;26.10;61.30;;;;;;4461796;32;20511;-70
2022/08/26 04:51:47;;;;;;;7.53;4.70;;;26.10;61.20;;;;;;4461815;32;20180;-70
2022/08/26 04:54:13;;;;;;;6.03;4.18;;;26.00;61.20;;;;;;4461485;32;20125;-71
2022/08/26 04:56:41;;;;;;;9.13;5.00;;;26.10;61.30;;;;;;4461392;32;20084;-70
2022/08/26 04:59:14;;;;;;;6.63;5.13;;;26.00;61.20;;;;;;4461425;32;20074;-70
2022/08/26 05:01:50;;;;;;;5.63;4.90;;;26.00;61.20;;;;;;4461313;32;20167;-70
2022/08/26 05:04:17;;;;;;;8.07;4.97;;;26.00;61.20;;;;;;4447370;32;20143;-70
2022/08/26 05:06:43;;;;;;;5.80;4.47;;;26.00;61.20;;;;;;4460888;32;20167;-70
2022/08/26 05:09:09;;;;;;;8.13;4.93;;;26.00;61.20;;;;;;4461087;32;20531;-70
2022/08/26 05:11:36;;;;;;;6.80;4.78;;;26.00;61.20;;;;;;4461202;32;20483;-70
2022/08/26 05:14:02;;;;;;;5.57;4.53;;;26.00;61.20;;;;;;4447253;32;20128;-70
2022/08/26 05:16:29;;;;;;;7.63;4.60;;;26.00;61.20;;;;;;4461003;32;20159;-70
2022/08/26 05:18:55;;;;;;;7.32;4.97;;;26.00;61.20;;;;;;4461007;32;20089;-70
2022/08/26 05:21:27;;;;;;;5.28;4.78;;;26.00;61.20;;;;;;4461100;32;20167;-70
2022/08/26 05:23:53;;;;;;;6.00;4.47;;;26.00;61.20;;;;;;4460839;32;20105;-70
2022/08/26 05:26:22;;;;;;;6.55;4.65;;;26.00;61.20;;;;;;4460988;32;20517;-70
2022/08/26 05:28:47;;;;;;;6.15;4.35;;;26.00;61.30;;;;;;4461016;32;20136;-70
2022/08/26 05:31:17;;;;;;;5.70;4.32;;;26.00;61.20;;;;;;4461218;32;20455;-70
2022/08/26 05:33:43;;;;;;;7.82;4.53;;;26.00;61.20;;;;;;4460891;32;20227;-70
2022/08/26 05:36:13;;;;;;;5.53;4.20;;;26.00;61.20;;;;;;4461071;32;20476;-70
2022/08/26 05:38:40;;;;;;;5.25;3.63;;;26.00;61.20;;;;;;4460874;32;20162;-71
2022/08/26 05:41:18;;;;;;;6.28;4.85;;;26.00;61.30;;;;;;4460812;32;20090;-71
2022/08/26 05:43:44;;;;;;;6.20;4.28;;;26.00;61.30;;;;;;4461050;32;20191;-70
2022/08/26 05:46:11;;;;;;;6.75;4.82;;;26.00;61.30;;;;;;4460982;32;20077;-71
2022/08/26 05:48:37;;;;;;;5.40;4.20;;;26.00;61.30;;;;;;4460355;32;20415;-70
2022/08/26 05:51:06;;;;;;;6.88;4.90;;;26.00;61.30;;;;;;4460533;32;20133;-69
2022/08/26 05:53:32;;;;;;;7.10;3.95;;;25.90;61.30;;;;;;4460742;32;20069;-70
2022/08/26 05:55:58;;;;;;;13.00;5.55;;;26.00;61.40;;;;;;4460663;32;20073;-70
2022/08/26 05:58:24;;;;;;;10.43;5.60;;;26.00;61.60;;;;;;4460424;32;20208;-70
2022/08/26 06:01:05;;;;;;;10.73;5.75;;;26.00;61.90;;;;;;4460730;32;20096;-71
2022/08/26 06:03:34;;;;;;;13.73;6.43;;;25.90;62.20;;;;;;4461053;32;20077;-71
2022/08/26 06:06:10;;;;;;;12.98;6.53;;;25.90;62.30;;;;;;4460736;32;20093;-70
2022/08/26 06:08:37;;;;;;;12.95;6.50;;;25.90;62.50;;;;;;4460714;32;20088;-70
2022/08/26 06:11:06;;;;;;;16.80;6.70;;;25.90;62.60;;;;;;4460596;32;20093;-70
2022/08/26 06:13:33;;;;;;;17.90;6.63;;;25.80;62.70;;;;;;4460771;32;20089;-70
2022/08/26 06:16:05;;;;;;;13.02;6.22;;;25.80;62.70;;;;;;4460465;32;20419;-70
2022/08/26 06:18:35;;;;;;;14.23;5.80;;;25.70;62.80;;;;;;4460334;32;20505;-70
2022/08/26 06:21:19;;;;;;;13.10;5.97;;;25.80;63.00;;;;;;4460699;32;20369;-70
2022/08/26 06:26:32;;;;;;;15.30;6.47;;;25.80;63.20;;;;;;4460860;32;20133;-70
2022/08/26 06:28:59;;;;;;;14.95;6.80;;;25.70;63.20;;;;;;4460715;32;20085;-70
2022/08/26 06:31:25;;;;;;;15.93;5.88;;;25.70;63.20;;;;;;4446524;32;20415;-70
2022/08/26 06:33:52;;;;;;;16.15;6.75;;;25.70;63.30;;;;;;4460192;32;20086;-70
2022/08/26 06:36:24;;;;;;;14.75;6.93;;;25.70;63.30;;;;;;4460412;32;20466;-70
2022/08/26 06:38:52;;;;;;;12.93;5.97;;;25.70;63.30;;;;;;4460471;32;20190;-71
2022/08/26 06:41:22;;;;;;;15.05;5.90;;;25.70;63.40;;;;;;4446459;32;20088;-70
2022/08/26 06:43:49;;;;;;;14.05;6.43;;;25.70;63.30;;;;;;4460072;32;20096;-70
2022/08/26 06:46:18;;;;;;;12.60;6.25;;;25.70;63.40;;;;;;4446047;32;20078;-70
2022/08/26 06:48:44;;;;;;;12.93;5.78;;;25.60;63.40;;;;;;4460518;32;20113;-70
2022/08/26 06:51:19;;;;;;;11.27;5.82;;;25.60;63.60;;;;;;4460525;32;20101;-71
2022/08/26 06:53:47;;;;;;;12.43;6.07;;;25.60;63.50;;;;;;4460930;32;20577;-71
2022/08/26 06:56:16;;;;;;;13.68;5.53;;;25.60;63.60;;;;;;4460109;32;20113;-71
2022/08/26 06:58:42;;;;;;;13.52;5.30;;;25.60;63.70;;;;;;4460786;32;20090;-71
2022/08/26 07:01:20;;;;;;;16.52;6.32;;;25.60;63.70;;;;;;4460432;32;20062;-71
2022/08/26 07:03:48;;;;;;;11.18;5.35;;;25.60;63.80;;;;;;4459884;32;20133;-71
2022/08/26 07:06:17;;;;;;;16.77;6.25;;;25.60;63.70;;;;;;4460296;32;20108;-71
2022/08/26 07:08:43;;;;;;;13.98;4.90;;;25.60;63.80;;;;;;4460350;32;20117;-71
2022/08/26 07:11:10;;;;;;;10.50;4.75;;;25.60;63.80;;;;;;4460428;32;20279;-71
2022/08/26 07:13:37;;;;;;;11.93;5.30;;;25.50;63.70;;;;;;4459771;32;20096;-71
2022/08/26 07:16:04;;;;;;;18.13;5.60;;;25.50;63.80;;;;;;4459977;32;20158;-72
2022/08/26 07:18:32;;;;;;;15.02;5.47;;;25.50;63.80;;;;;;4460281;32;20089;-70
2022/08/26 07:21:04;;;;;;;14.82;4.72;;;25.50;63.80;;;;;;4459715;32;20092;-71
2022/08/26 07:23:30;;;;;;;13.07;5.65;;;25.50;63.80;;;;;;4459607;32;20503;-71
2022/08/26 07:25:56;;;;;;;12.10;4.97;;;25.50;63.80;;;;;;4459603;32;20074;-71
2022/08/26 07:28:22;;;;;;;9.02;4.63;;;25.50;63.70;;;;;;4461049;32;20062;-71
2022/08/26 07:30:48;;;;;;;12.48;5.10;;;25.60;63.70;;;;;;4462343;32;20065;-71
2022/08/26 07:33:14;;;;;;;12.38;5.00;;;25.60;63.60;;;;;;4462391;32;20114;-70
2022/08/26 07:35:40;;;;;;;13.30;4.93;;;25.60;63.60;;;;;;4448607;32;20092;-71
2022/08/26 07:38:07;;;;;;;10.15;4.43;;;25.60;63.60;;;;;;4462595;32;20089;-71
2022/08/26 07:40:33;;;;;;;13.10;5.13;;;25.60;63.60;;;;;;4462418;32;20085;-71
2022/08/26 07:42:59;;;;;;;10.95;5.53;;;25.60;63.50;;;;;;4462443;32;20080;-71
2022/08/26 07:45:25;;;;;;;9.85;4.68;;;25.70;63.50;;;;;;4462698;32;20395;-71
2022/08/26 07:47:51;;;;;;;9.52;3.97;;;25.60;63.40;;;;;;4462469;32;20066;-71
2022/08/26 07:50:16;;;;;;;11.13;4.40;;;25.70;63.40;;;;;;4462456;32;20163;-71
2022/08/26 07:52:42;;;;;;;8.93;3.90;;;25.70;63.40;;;;;;4462359;32;20523;-71
2022/08/26 07:55:09;;;;;;;7.25;4.50;;;25.70;63.40;;;;;;4462274;32;20403;-71
2022/08/26 07:57:35;;;;;;;9.35;4.10;;;25.70;64.30;;;;;;4461971;32;20531;-70
2022/08/26 08:00:03;;;;;;;8.85;3.72;;;25.70;63.40;;;;;;4462203;32;20094;-71
2022/08/26 08:02:29;;;;;;;10.48;4.00;;;25.70;63.40;;;;;;4462215;32;20511;-71
2022/08/26 08:04:56;;;;;;;8.93;3.55;;;25.70;63.30;;;;;;4462189;32;20082;-70
2022/08/26 08:07:22;;;;;;;8.85;3.28;;;25.70;63.30;;;;;;4462223;32;20074;-70
2022/08/26 08:09:50;;;;;;;7.55;3.25;;;25.70;63.30;;;;;;4461887;32;20194;-70
2022/08/26 08:12:17;;;;;;;8.82;3.15;;;25.70;63.20;;;;;;4462295;32;20085;-70
2022/08/26 08:14:45;;;;;;;6.32;3.10;;;25.70;63.20;;;;;;4462010;32;20124;-70
2022/08/26 08:17:15;;;;;;;6.68;3.25;;;25.70;63.20;;;;;;4462029;32;20271;-71
2022/08/26 08:19:41;;;;;;;10.65;3.53;;;25.70;63.30;;;;;;4462148;32;20228;-68
2022/08/26 08:22:08;;;;;;;8.95;3.90;;;25.70;63.30;;;;;;4462250;32;20078;-70
2022/08/26 08:24:34;;;;;;;9.25;3.40;;;25.70;63.40;;;;;;4462185;32;20114;-72
2022/08/26 08:27:00;;;;;;;10.40;2.97;;;25.70;63.50;;;;;;4462209;32;20199;-71
2022/08/26 08:29:28;;;;;;;9.27;2.60;;;25.70;63.60;;;;;;4461628;32;20092;-71
2022/08/26 08:31:57;;;;;;;8.93;2.83;;;25.70;63.60;;;;;;4462005;32;20118;-71
2022/08/26 08:34:25;;;;;;;11.18;3.30;;;25.70;63.50;;;;;;4461839;32;20211;-71
2022/08/26 08:36:51;;;;;;;12.07;3.05;;;25.70;63.50;;;;;;4461687;32;20400;-72
2022/08/26 08:39:18;;;;;;;7.82;2.92;;;25.70;63.50;;;;;;4461249;32;20091;-71
2022/08/26 08:42:20;;;;;;;10.20;2.72;;;25.70;63.50;;;;;;4461836;32;20140;-70
2022/08/26 08:44:51;;;;;;;11.10;2.63;;;25.70;63.50;;;;;;4461974;32;20085;-71
2022/08/26 08:47:27;;;;;;;8.65;2.67;;;25.70;63.50;;;;;;4461623;32;20512;-70
2022/08/26 08:50:08;;;;;;;7.47;2.33;;;25.70;63.50;;;;;;4462006;32;20159;-70
2022/08/26 08:52:35;;;;;;;9.35;2.60;;;25.70;63.50;;;;;;4461897;32;20239;-72
2022/08/26 08:55:04;;;;;;;8.70;2.65;;;25.70;63.40;;;;;;4461498;32;20511;-71
2022/08/26 08:57:35;;;;;;;9.18;2.60;;;25.70;63.40;;;;;;4461378;32;20085;-71
2022/08/26 09:00:11;;;;;;;8.68;2.33;;;25.70;63.30;;;;;;4461552;32;20518;-71
2022/08/26 09:03:02;;;;;;;9.82;2.40;;;25.70;63.20;;;;;;4461643;32;20128;-71
2022/08/26 09:05:33;;;;;;;7.80;2.50;;;25.70;63.10;;;;;;4461084;32;20081;-71
2022/08/26 09:08:03;;;;;;;10.80;2.63;;;25.70;63.10;;;;;;4447498;32;20065;-71
2022/08/26 09:10:39;;;;;;;7.47;1.95;;;25.70;63.20;;;;;;4461316;32;20079;-72
2022/08/26 09:13:14;;;;;;;8.48;2.50;;;25.70;63.20;;;;;;4461150;32;20066;-72
2022/08/26 09:15:49;;;;;;;6.68;2.25;;;25.70;63.10;;;;;;4461406;32;20082;-70
2022/08/26 09:18:36;;;;;;;7.88;2.40;;;25.70;63.00;;;;;;4461114;32;20099;-71
2022/08/26 09:21:05;;;;;;;7.95;2.38;;;25.70;63.00;;;;;;4461175;32;20090;-71
2022/08/26 09:23:34;;;;;;;7.35;2.40;;;25.70;63.00;;;;;;4461084;32;20223;-70
2022/08/26 09:26:18;;;;;;;7.43;2.47;;;25.70;63.00;;;;;;4460748;32;20167;-73
2022/08/26 09:28:55;;;;;;;7.88;2.30;;;25.70;62.90;;;;;;4460976;32;20498;-72
2022/08/26 09:31:26;;;;;;;8.60;2.55;;;25.70;62.90;;;;;;4461042;32;20085;-73
2022/08/26 09:34:07;;;;;;;8.90;2.45;;;25.80;62.80;;;;;;4446975;32;20085;-72
2022/08/26 09:36:42;;;;;;;9.65;2.30;;;25.80;62.60;;;;;;4460475;32;20134;-71
2022/08/26 09:39:26;;;;;;;7.28;2.05;;;25.70;62.50;;;;;;4460539;32;20215;-71
2022/08/26 09:42:12;;;;;;;7.75;2.30;;;25.70;62.40;;;;;;4461087;32;20100;-71
2022/08/26 09:45:07;;;;;;;8.55;2.35;;;25.70;62.30;;;;;;4446597;32;20246;-72
2022/08/26 09:47:50;;;;;;;7.15;1.95;;;25.70;62.30;;;;;;4461087;32;20070;-71
2022/08/26 09:50:29;;;;;;;10.30;2.47;;;25.70;62.40;;;;;;4460815;32;20085;-72
2022/08/26 09:53:30;;;;;;;10.80;2.47;;;25.70;62.30;;;;;;4459943;32;20100;-71
2022/08/26 09:56:13;;;;;;;8.63;1.88;;;25.70;62.30;;;;;;4461224;32;20070;-71
2022/08/26 09:58:42;;;;;;;9.40;2.38;;;25.70;62.20;;;;;;4460699;32;20519;-71
2022/08/26 10:01:15;;;;;;;6.88;2.35;;;25.70;62.30;;;;;;4460876;32;20638;-71
2022/08/26 10:03:41;;;;;;;;;;;25.70;62.30;;;;;;4461383;32;20604;-70
2022/08/26 10:06:16;;;;;;;6.55;2.17;;;25.70;62.20;;;;;;4460310;32;19985;-71
2022/08/26 10:08:45;;;;;;;10.10;2.78;;;25.60;62.30;;;;;;4460845;32;20543;-70
2022/08/26 10:11:29;;;;;;;6.97;2.28;;;25.70;62.30;;;;;;4460269;32;20078;-71
2022/08/26 10:14:00;;;;;;;6.78;2.28;;;25.70;62.30;;;;;;4460544;32;20097;-71
2022/08/26 10:16:47;;;;;;;7.40;2.45;;;25.70;62.40;;;;;;4460992;32;20143;-71
2022/08/26 10:19:36;;;;;;;8.50;2.60;;;25.70;62.50;;;;;;4460815;32;20411;-71
2022/08/26 10:22:11;;;;;;;7.78;2.25;;;25.70;62.50;;;;;;4461037;32;20373;-72
2022/08/26 10:24:41;;;;;;;7.25;2.35;;;25.70;62.60;;;;;;4460688;32;20159;-71
2022/08/26 10:27:26;;;;;;;8.10;2.38;;;25.70;62.70;;;;;;4446423;32;20624;-72
2022/08/26 10:29:59;;;;;;;7.70;2.65;;;25.70;62.70;;;;;;4446517;32;20526;-72
2022/08/26 10:32:36;;;;;;;7.97;2.60;;;25.70;62.80;;;;;;4460524;32;20098;-71
2022/08/26 10:35:05;;;;;;;6.82;2.45;;;25.70;62.60;;;;;;4460319;32;20076;-72
2022/08/26 10:37:48;;;;;;;9.48;2.50;;;25.70;62.70;;;;;;4460245;32;20079;-72
2022/08/26 10:40:23;;;;;;;8.93;3.00;;;25.70;62.70;;;;;;4460452;32;20280;-74
2022/08/26 10:43:14;;;;;;;10.68;3.17;;;25.70;62.80;;;;;;4460100;32;20094;-71
2022/08/26 10:45:49;;;;;;;7.70;2.55;;;25.70;62.70;;;;;;4460357;32;20077;-72
2022/08/26 10:48:26;;;;;;;9.02;2.97;;;25.70;62.70;;;;;;4460313;32;20124;-72
2022/08/26 10:50:55;;;;;;;9.07;2.95;;;25.70;62.70;;;;;;4460414;32;20074;-70
2022/08/26 10:53:46;;;;;;;11.77;2.78;;;25.70;62.70;;;;;;4459990;32;20423;-70
2022/08/26 10:56:45;;;;;;;10.68;2.90;;;25.70;62.70;;;;;;4460114;32;20090;-70
2022/08/26 10:59:14;;;;;;;12.30;3.42;;;25.70;62.70;;;;;;4460224;32;20089;-70
2022/08/26 11:02:09;;;;;;;8.95;2.45;;;25.70;62.70;;;;;;4459843;32;20077;-71
2022/08/26 11:04:55;;;;;;;10.38;2.67;;;25.70;62.50;;;;;;4451435;32;20109;-70
2022/08/26 11:07:44;;;;;;;9.77;2.80;;;25.60;62.40;;;;;;4463411;32;20069;-71
2022/08/26 11:10:19;;;;;;;10.02;2.92;;;25.60;62.30;;;;;;4462804;32;20092;-71
2022/08/26 11:12:55;;;;;;;11.23;2.25;;;25.60;62.50;;;;;;4448804;32;20080;-70
2022/08/26 11:15:28;;;;;;;9.27;2.60;;;25.60;62.40;;;;;;4463019;32;20062;-70
2022/08/26 11:18:03;;;;;;;11.52;2.55;;;25.60;62.30;;;;;;4463064;32;20515;-70
2022/08/26 11:20:46;;;;;;;11.18;2.78;;;25.60;62.30;;;;;;4463158;32;20085;-70
2022/08/26 11:23:12;;;;;;;;;;;25.60;62.40;;;;;;4449762;32;20084;-71
2022/08/26 11:26:04;;;;;;;10.57;2.95;;;25.60;62.40;;;;;;4462938;32;19966;-70
2022/08/26 11:28:49;;;;;;;11.73;3.05;;;25.60;62.60;;;;;;4462631;32;20077;-70
2022/08/26 11:31:17;;;;;;;15.40;3.17;;;25.60;62.60;;;;;;4462810;32;20214;-71
2022/08/26 11:33:56;;;;;;;10.32;3.13;;;25.60;62.90;;;;;;4462761;32;20074;-69
2022/08/26 11:36:46;;;;;;;10.32;3.28;;;25.60;62.90;;;;;;4463012;32;20223;-75
2022/08/26 11:39:32;;;;;;;15.05;3.08;;;25.60;63.00;;;;;;4462453;32;20066;-75
2022/08/26 11:42:18;;;;;;;10.35;3.55;;;25.60;63.10;;;;;;4463126;32;20089;-75
2022/08/26 11:44:45;;;;;;;15.68;3.60;;;25.60;63.10;;;;;;4463078;32;20082;-75
2022/08/26 11:47:14;;;;;;;15.40;3.30;;;25.60;63.00;;;;;;4462774;32;20085;-77
2022/08/26 11:49:40;;;;;;;8.98;2.97;;;25.60;63.10;;;;;;4462793;32;20500;-76
2022/08/26 11:52:19;;;;;;;10.63;3.08;;;25.60;63.10;;;;;;4462335;32;20081;-79
2022/08/26 11:55:08;;;;;;;9.35;3.03;;;25.60;63.00;;;;;;4462330;32;20670;-75
2022/08/26 11:57:48;;;;;;;13.35;3.42;;;25.60;63.00;;;;;;4462659;32;20069;-75
2022/08/26 12:00:23;;;;;;;12.10;3.75;;;25.60;63.10;;;;;;4462833;32;20089;-76
2022/08/26 12:02:50;;;;;;;13.55;2.95;;;25.60;63.10;;;;;;4448084;32;20069;-75
2022/08/26 12:05:24;;;;;;;14.93;3.67;;;25.60;63.10;;;;;;4448320;32;20546;-76
2022/08/26 12:07:51;;;;;;;11.35;3.28;;;25.60;63.20;;;;;;4462540;32;20082;-74
2022/08/26 12:10:32;;;;;;;9.15;3.03;;;25.60;63.20;;;;;;4462462;32;20073;-75
2022/08/26 12:13:00;;;;;;;11.18;3.10;;;25.60;63.20;;;;;;4462103;32;20077;-75
2022/08/26 12:15:28;;;;;;;9.52;3.03;;;25.60;63.30;;;;;;4461390;32;20627;-76
2022/08/26 12:17:54;;;;;;;8.07;2.80;;;25.60;63.30;;;;;;4462485;32;20070;-75
2022/08/26 12:20:52;;;;;;;11.95;3.13;;;25.60;63.30;;;;;;4462469;32;20093;-75
2022/08/26 12:23:24;;;;;;;8.82;2.80;;;25.60;63.30;;;;;;4462151;32;20160;-75
2022/08/26 12:25:52;;;;;;;7.40;2.95;;;25.60;63.30;;;;;;4462446;32;20167;-76
2022/08/26 12:28:20;;;;;;;11.82;3.17;;;25.60;63.20;;;;;;4461862;32;20074;-75
2022/08/26 12:31:00;;;;;;;7.30;2.58;;;25.60;63.20;;;;;;4462088;32;20081;-75
2022/08/26 12:33:27;;;;;;;8.27;2.88;;;25.60;63.10;;;;;;4462247;32;20157;-75
2022/08/26 12:35:53;;;;;;;7.97;3.40;;;25.70;63.10;;;;;;4462036;32;20219;-74
2022/08/26 12:38:20;;;;;;;8.48;2.40;;;25.70;63.10;;;;;;4461877;32;20093;-74
2022/08/26 12:40:48;;;;;;;7.35;3.05;;;25.70;63.00;;;;;;4447464;32;20420;-74
2022/08/26 12:43:39;;;;;;;11.63;2.90;;;25.70;63.00;;;;;;4462315;32;20621;-74
2022/08/26 12:46:09;;;;;;;8.70;2.75;;;25.70;63.00;;;;;;4461841;32;20085;-74
2022/08/26 12:48:38;;;;;;;10.10;2.90;;;25.70;63.00;;;;;;4461680;32;20118;-74
2022/08/26 12:51:25;;;;;;;7.75;2.60;;;25.70;63.10;;;;;;4461749;32;20101;-74
2022/08/26 12:53:52;;;;;;;8.05;2.60;;;25.70;63.00;;;;;;4462009;32;20094;-74
2022/08/26 12:56:32;;;;;;;7.35;2.65;;;25.70;63.10;;;;;;4447349;32;20190;-75
2022/08/26 12:59:17;;;;;;;10.75;2.88;;;25.70;63.10;;;;;;4462000;32;20082;-75
2022/08/26 13:01:44;;;;;;;8.80;2.67;;;25.70;63.10;;;;;;4461919;32;20074;-74
2022/08/26 13:04:31;;;;;;;6.57;2.63;;;25.70;63.10;;;;;;4461474;32;20566;-74
2022/08/26 13:07:16;;;;;;;7.50;2.63;;;25.70;63.10;;;;;;4461631;32;20500;-75
2022/08/26 13:09:42;;;;;;;7.38;2.40;;;25.70;63.10;;;;;;4461436;32;20522;-75